sensor_id;sensor_type;location;lat;lon;timestamp;pressure;altitude;pressure_sealevel;temperature;humidity
7768;BME280;3928;42.626;23.382;2024-03-23T00:56:03;94503.03;;;3.69;54.60
7768;BME280;3928;42.626;23.382;2024-03-23T00:58:29;94502.28;;;3.68;54.24
7768;BME280;3928;42.626;23.382;2024-03-23T01:00:54;94481.44;;;3.50;54.51
7768;BME280;3928;42.626;23.382;2024-03-23T01:03:20;94500.47;;;3.64;54.99
7768;BME280;3928;42.626;23.382;2024-03-23T01:05:45;94492.72;;;3.54;55.29
7768;BME280;3928;42.626;23.382;2024-03-23T01:08:11;94488.00;;;3.41;55.36
7768;BME280;3928;42.626;23.382;2024-03-23T01:10:36;94479.28;;;3.37;54.82
7768;BME280;3928;42.626;23.382;2024-03-23T01:13:02;94489.50;;;3.37;54.56
7768;BME280;3928;42.626;23.382;2024-03-23T01:15:27;94487.94;;;3.31;54.98
7768;BME280;3928;42.626;23.382;2024-03-23T01:17:53;94480.63;;;3.12;55.37
7768;BME280;3928;42.626;23.382;2024-03-23T01:20:18;94483.22;;;3.17;55.23
7768;BME280;3928;42.626;23.382;2024-03-23T01:22:44;94478.63;;;3.14;54.93
7768;BME280;3928;42.626;23.382;2024-03-23T01:25:09;94492.69;;;3.17;55.04
7768;BME280;3928;42.626;23.382;2024-03-23T01:27:35;94464.81;;;3.10;55.30
7768;BME280;3928;42.626;23.382;2024-03-23T01:30:00;94482.50;;;3.22;54.93
7768;BME280;3928;42.626;23.382;2024-03-23T01:32:26;94481.06;;;3.36;54.75
7768;BME280;3928;42.626;23.382;2024-03-23T01:34:52;94483.69;;;3.41;54.83
7768;BME280;3928;42.626;23.382;2024-03-23T01:37:18;94467.41;;;3.20;55.29
7768;BME280;3928;42.626;23.382;2024-03-23T01:39:43;94483.31;;;3.28;55.57
7768;BME280;3928;42.626;23.382;2024-03-23T01:42:27;94494.16;;;3.45;55.03
7768;BME280;3928;42.626;23.382;2024-03-23T01:44:53;94491.97;;;3.58;54.29
7768;BME280;3928;42.626;23.382;2024-03-23T01:47:18;94473.84;;;3.60;54.29
7768;BME280;3928;42.626;23.382;2024-03-23T01:49:44;94474.13;;;3.63;54.61
7768;BME280;3928;42.626;23.382;2024-03-23T01:52:10;94480.53;;;3.66;54.87
7768;BME280;3928;42.626;23.382;2024-03-23T01:54:35;94481.03;;;3.63;54.36
7768;BME280;3928;42.626;23.382;2024-03-23T01:57:01;94479.72;;;3.60;54.22
7768;BME280;3928;42.626;23.382;2024-03-23T01:59:26;94476.97;;;3.67;54.09
7768;BME280;3928;42.626;23.382;2024-03-23T02:01:52;94474.78;;;3.49;54.24
7768;BME280;3928;42.626;23.382;2024-03-23T02:04:18;94486.00;;;3.43;55.09
7768;BME280;3928;42.626;23.382;2024-03-23T02:06:43;94481.94;;;3.47;54.16
7768;BME280;3928;42.626;23.382;2024-03-23T02:09:09;94481.97;;;3.52;54.49
7768;BME280;3928;42.626;23.382;2024-03-23T02:11:34;94500.78;;;3.41;54.81
7768;BME280;3928;42.626;23.382;2024-03-23T02:14:00;94494.66;;;3.42;54.77
7768;BME280;3928;42.626;23.382;2024-03-23T02:16:25;94484.94;;;3.39;54.04
7768;BME280;3928;42.626;23.382;2024-03-23T02:18:51;94489.78;;;3.40;55.10
7768;BME280;3928;42.626;23.382;2024-03-23T02:21:16;94493.13;;;3.41;54.90
7768;BME280;3928;42.626;23.382;2024-03-23T02:23:42;94484.94;;;3.39;55.20
7768;BME280;3928;42.626;23.382;2024-03-23T02:26:07;94498.50;;;3.44;55.41
7768;BME280;3928;42.626;23.382;2024-03-23T02:28:33;94497.09;;;3.58;55.56
7768;BME280;3928;42.626;23.382;2024-03-23T02:30:58;94491.72;;;3.55;54.90
7768;BME280;3928;42.626;23.382;2024-03-23T02:33:25;94493.06;;;3.36;55.65
7768;BME280;3928;42.626;23.382;2024-03-23T02:35:55;94487.06;;;3.20;55.17
7768;BME280;3928;42.626;23.382;2024-03-23T02:38:21;94494.94;;;3.13;55.27
7768;BME280;3928;42.626;23.382;2024-03-23T02:40:46;94502.84;;;3.12;54.57
7768;BME280;3928;42.626;23.382;2024-03-23T02:43:12;94487.91;;;2.99;53.74
7768;BME280;3928;42.626;23.382;2024-03-23T02:45:37;94493.06;;;2.77;54.89
7768;BME280;3928;42.626;23.382;2024-03-23T02:48:03;94499.97;;;2.55;54.31
7768;BME280;3928;42.626;23.382;2024-03-23T02:50:29;94490.13;;;2.63;54.06
7768;BME280;3928;42.626;23.382;2024-03-23T02:52:54;94486.03;;;2.62;53.30
7768;BME280;3928;42.626;23.382;2024-03-23T02:55:20;94476.72;;;2.73;52.75
7768;BME280;3928;42.626;23.382;2024-03-23T02:57:46;94481.84;;;2.78;52.92
7768;BME280;3928;42.626;23.382;2024-03-23T03:00:12;94477.06;;;2.87;53.00
7768;BME280;3928;42.626;23.382;2024-03-23T03:02:38;94474.50;;;2.82;53.19
7768;BME280;3928;42.626;23.382;2024-03-23T03:05:04;94482.59;;;2.78;53.54
7768;BME280;3928;42.626;23.382;2024-03-23T03:07:31;94481.97;;;2.66;54.01
7768;BME280;3928;42.626;23.382;2024-03-23T03:09:56;94479.78;;;2.75;53.40
7768;BME280;3928;42.626;23.382;2024-03-23T03:12:22;94476.44;;;2.48;53.74
7768;BME280;3928;42.626;23.382;2024-03-23T03:14:47;94487.72;;;2.57;53.80
7768;BME280;3928;42.626;23.382;2024-03-23T03:17:13;94481.31;;;2.76;53.11
7768;BME280;3928;42.626;23.382;2024-03-23T03:19:40;94486.00;;;2.84;53.25
7768;BME280;3928;42.626;23.382;2024-03-23T03:22:05;94488.44;;;2.74;53.94
7768;BME280;3928;42.626;23.382;2024-03-23T03:24:31;94482.56;;;2.73;53.74
7768;BME280;3928;42.626;23.382;2024-03-23T03:26:56;94484.28;;;2.90;53.04
7768;BME280;3928;42.626;23.382;2024-03-23T03:29:23;94489.69;;;2.98;52.84
7768;BME280;3928;42.626;23.382;2024-03-23T03:31:49;94482.00;;;2.93;52.57
7768;BME280;3928;42.626;23.382;2024-03-23T03:34:15;94460.91;;;2.76;52.20
7768;BME280;3928;42.626;23.382;2024-03-23T03:36:41;94485.69;;;3.07;52.18
7768;BME280;3928;42.626;23.382;2024-03-23T03:39:06;94487.81;;;3.15;51.59
7768;BME280;3928;42.626;23.382;2024-03-23T03:41:32;94486.06;;;3.21;52.27
7768;BME280;3928;42.626;23.382;2024-03-23T03:43:58;94481.78;;;3.27;51.78
7768;BME280;3928;42.626;23.382;2024-03-23T03:46:28;94474.75;;;3.12;52.31
7768;BME280;3928;42.626;23.382;2024-03-23T03:48:54;94485.75;;;3.12;53.10
7768;BME280;3928;42.626;23.382;2024-03-23T03:51:19;94488.16;;;2.97;53.75
7768;BME280;3928;42.626;23.382;2024-03-23T03:53:46;94484.28;;;2.90;54.20
7768;BME280;3928;42.626;23.382;2024-03-23T03:56:11;94492.84;;;2.57;56.24
7768;BME280;3928;42.626;23.382;2024-03-23T03:58:37;94497.63;;;2.48;56.25
7768;BME280;3928;42.626;23.382;2024-03-23T04:01:02;94490.41;;;2.45;56.56
7768;BME280;3928;42.626;23.382;2024-03-23T04:03:28;94490.13;;;2.42;55.87
7768;BME280;3928;42.626;23.382;2024-03-23T04:05:54;94494.03;;;2.49;55.05
7768;BME280;3928;42.626;23.382;2024-03-23T04:08:20;94490.84;;;2.59;54.13
7768;BME280;3928;42.626;23.382;2024-03-23T04:10:45;94485.50;;;2.60;54.35
7768;BME280;3928;42.626;23.382;2024-03-23T04:13:14;94484.31;;;2.68;54.00
7768;BME280;3928;42.626;23.382;2024-03-23T04:15:40;94485.66;;;2.75;53.38
7768;BME280;3928;42.626;23.382;2024-03-23T04:18:06;94492.31;;;2.76;53.26
7768;BME280;3928;42.626;23.382;2024-03-23T04:20:31;94498.03;;;2.89;53.40
7768;BME280;3928;42.626;23.382;2024-03-23T04:22:58;94486.66;;;2.53;54.37
7768;BME280;3928;42.626;23.382;2024-03-23T04:25:23;94480.84;;;2.57;54.56
7768;BME280;3928;42.626;23.382;2024-03-23T04:27:49;94499.41;;;2.74;54.60
7768;BME280;3928;42.626;23.382;2024-03-23T04:30:15;94495.13;;;2.80;53.92
7768;BME280;3928;42.626;23.382;2024-03-23T04:32:40;94490.81;;;2.81;54.40
7768;BME280;3928;42.626;23.382;2024-03-23T04:35:07;94491.03;;;2.79;54.84
7768;BME280;3928;42.626;23.382;2024-03-23T04:37:36;94507.34;;;2.78;55.73
7768;BME280;3928;42.626;23.382;2024-03-23T04:40:02;94502.28;;;2.56;56.50
7768;BME280;3928;42.626;23.382;2024-03-23T04:42:28;94513.13;;;2.68;56.06
7768;BME280;3928;42.626;23.382;2024-03-23T04:44:54;94505.78;;;2.50;56.63
7768;BME280;3928;42.626;23.382;2024-03-23T04:47:20;94491.50;;;2.27;57.24
7768;BME280;3928;42.626;23.382;2024-03-23T04:49:45;94501.94;;;2.26;57.82
7768;BME280;3928;42.626;23.382;2024-03-23T04:52:11;94515.56;;;2.15;58.34
7768;BME280;3928;42.626;23.382;2024-03-23T04:54:37;94507.25;;;2.03;58.93
7768;BME280;3928;42.626;23.382;2024-03-23T04:57:03;94515.78;;;2.13;58.46
7768;BME280;3928;42.626;23.382;2024-03-23T04:59:28;94497.09;;;2.08;58.64
7768;BME280;3928;42.626;23.382;2024-03-23T05:01:54;94516.22;;;2.27;58.13
7768;BME280;3928;42.626;23.382;2024-03-23T05:04:19;94505.59;;;2.13;58.95
7768;BME280;3928;42.626;23.382;2024-03-23T05:06:45;94513.50;;;2.33;58.94
7768;BME280;3928;42.626;23.382;2024-03-23T05:09:10;94517.75;;;2.50;58.37
7768;BME280;3928;42.626;23.382;2024-03-23T05:11:38;94513.09;;;2.63;58.35
7768;BME280;3928;42.626;23.382;2024-03-23T05:14:05;94516.97;;;2.71;58.09
7768;BME280;3928;42.626;23.382;2024-03-23T05:16:31;94514.50;;;2.76;57.68
7768;BME280;3928;42.626;23.382;2024-03-23T05:18:57;94515.66;;;2.90;57.95
7768;BME280;3928;42.626;23.382;2024-03-23T05:21:22;94510.94;;;3.04;57.92
7768;BME280;3928;42.626;23.382;2024-03-23T05:23:48;94513.34;;;3.15;57.27
7768;BME280;3928;42.626;23.382;2024-03-23T05:26:14;94503.66;;;3.17;57.35
7768;BME280;3928;42.626;23.382;2024-03-23T05:28:39;94512.72;;;3.30;57.15
7768;BME280;3928;42.626;23.382;2024-03-23T05:31:05;94501.22;;;3.33;57.44
7768;BME280;3928;42.626;23.382;2024-03-23T05:33:32;94503.09;;;3.42;57.14
7768;BME280;3928;42.626;23.382;2024-03-23T05:36:00;94504.22;;;3.56;56.94
7768;BME280;3928;42.626;23.382;2024-03-23T05:38:25;94502.75;;;3.65;56.30
7768;BME280;3928;42.626;23.382;2024-03-23T05:40:58;94503.34;;;3.78;56.17
7768;BME280;3928;42.626;23.382;2024-03-23T05:43:24;94507.06;;;3.97;56.17
7768;BME280;3928;42.626;23.382;2024-03-23T05:45:57;94499.78;;;4.26;55.72
7768;BME280;3928;42.626;23.382;2024-03-23T05:48:22;94510.22;;;4.81;63.13
7768;BME280;3928;42.626;23.382;2024-03-23T05:50:49;94493.41;;;5.56;63.20
7768;BME280;3928;42.626;23.382;2024-03-23T05:53:15;94501.28;;;6.25;61.28
7768;BME280;3928;42.626;23.382;2024-03-23T05:55:40;94500.03;;;6.82;52.09
7768;BME280;3928;42.626;23.382;2024-03-23T05:58:06;94496.91;;;7.29;56.62
7768;BME280;3928;42.626;23.382;2024-03-23T06:00:31;94475.91;;;7.56;49.11
7768;BME280;3928;42.626;23.382;2024-03-23T06:02:58;94504.34;;;7.98;54.90
7768;BME280;3928;42.626;23.382;2024-03-23T06:05:24;94492.06;;;8.19;53.59
7768;BME280;3928;42.626;23.382;2024-03-23T06:07:49;94498.81;;;8.39;47.37
7768;BME280;3928;42.626;23.382;2024-03-23T06:10:15;94498.66;;;8.30;51.10
7768;BME280;3928;42.626;23.382;2024-03-23T06:12:41;94493.00;;;8.52;57.40
7768;BME280;3928;42.626;23.382;2024-03-23T06:15:07;94473.75;;;8.68;45.61
7768;BME280;3928;42.626;23.382;2024-03-23T06:17:36;94492.34;;;8.84;47.48
7768;BME280;3928;42.626;23.382;2024-03-23T06:20:02;94472.16;;;8.72;44.36
7768;BME280;3928;42.626;23.382;2024-03-23T06:22:27;94488.22;;;8.64;43.10
7768;BME280;3928;42.626;23.382;2024-03-23T06:24:53;94492.75;;;8.72;44.21
7768;BME280;3928;42.626;23.382;2024-03-23T06:27:18;94499.94;;;8.75;45.64
7768;BME280;3928;42.626;23.382;2024-03-23T06:29:44;94497.81;;;9.01;49.75
7768;BME280;3928;42.626;23.382;2024-03-23T06:32:09;94504.00;;;9.37;44.81
7768;BME280;3928;42.626;23.382;2024-03-23T06:34:35;94486.97;;;9.55;43.12
7768;BME280;3928;42.626;23.382;2024-03-23T06:37:00;94493.94;;;9.87;45.94
7768;BME280;3928;42.626;23.382;2024-03-23T06:39:26;94491.69;;;10.12;43.34
7768;BME280;3928;42.626;23.382;2024-03-23T06:41:52;94486.44;;;10.31;44.75
7768;BME280;3928;42.626;23.382;2024-03-23T06:44:19;94483.97;;;10.53;42.58
7768;BME280;3928;42.626;23.382;2024-03-23T06:46:45;94490.38;;;10.83;42.65
7768;BME280;3928;42.626;23.382;2024-03-23T06:49:10;94484.19;;;11.06;40.87
7768;BME280;3928;42.626;23.382;2024-03-23T06:51:36;94488.94;;;11.49;41.37
7768;BME280;3928;42.626;23.382;2024-03-23T06:54:03;94489.19;;;11.83;39.31
7768;BME280;3928;42.626;23.382;2024-03-23T06:56:30;94484.69;;;11.97;38.64
7768;BME280;3928;42.626;23.382;2024-03-23T06:58:56;94481.81;;;11.99;37.47
7768;BME280;3928;42.626;23.382;2024-03-23T07:01:22;94487.44;;;12.01;37.05
7768;BME280;3928;42.626;23.382;2024-03-23T07:03:47;94484.41;;;11.99;41.48
7768;BME280;3928;42.626;23.382;2024-03-23T07:06:13;94478.69;;;12.19;38.50
7768;BME280;3928;42.626;23.382;2024-03-23T07:08:38;94476.81;;;12.50;42.42
7768;BME280;3928;42.626;23.382;2024-03-23T07:11:04;94477.53;;;12.82;36.49
7768;BME280;3928;42.626;23.382;2024-03-23T07:13:30;94469.13;;;12.93;36.65
7768;BME280;3928;42.626;23.382;2024-03-23T07:15:56;94466.69;;;12.97;35.70
7768;BME280;3928;42.626;23.382;2024-03-23T07:18:22;94469.91;;;13.03;35.92
7768;BME280;3928;42.626;23.382;2024-03-23T07:20:57;94473.13;;;13.08;34.96
7768;BME280;3928;42.626;23.382;2024-03-23T07:23:26;94472.81;;;13.10;34.65
7768;BME280;3928;42.626;23.382;2024-03-23T07:26:02;94456.38;;;13.14;35.09
7768;BME280;3928;42.626;23.382;2024-03-23T07:28:28;94460.03;;;13.22;34.76
7768;BME280;3928;42.626;23.382;2024-03-23T07:31:09;94468.13;;;13.29;35.41
7768;BME280;3928;42.626;23.382;2024-03-23T07:33:37;94454.22;;;13.33;35.07
7768;BME280;3928;42.626;23.382;2024-03-23T07:36:03;94446.91;;;13.44;34.80
7768;BME280;3928;42.626;23.382;2024-03-23T07:38:29;94449.63;;;13.56;34.54
7768;BME280;3928;42.626;23.382;2024-03-23T07:41:09;94452.66;;;13.58;34.13
7768;BME280;3928;42.626;23.382;2024-03-23T07:43:37;94452.06;;;13.61;34.59
7768;BME280;3928;42.626;23.382;2024-03-23T07:46:04;94446.72;;;13.66;34.02
7768;BME280;3928;42.626;23.382;2024-03-23T07:48:30;94435.69;;;13.78;34.31
7768;BME280;3928;42.626;23.382;2024-03-23T07:51:07;94437.75;;;14.02;34.43
7768;BME280;3928;42.626;23.382;2024-03-23T07:53:34;94449.03;;;14.14;33.76
7768;BME280;3928;42.626;23.382;2024-03-23T07:56:01;94433.91;;;14.08;34.25
7768;BME280;3928;42.626;23.382;2024-03-23T07:58:27;94444.19;;;14.33;34.18
7768;BME280;3928;42.626;23.382;2024-03-23T08:00:54;94430.41;;;14.42;35.30
7768;BME280;3928;42.626;23.382;2024-03-23T08:03:20;94434.28;;;14.65;33.66
7768;BME280;3928;42.626;23.382;2024-03-23T08:05:46;94445.97;;;14.79;32.81
7768;BME280;3928;42.626;23.382;2024-03-23T08:08:11;94441.94;;;14.91;33.25
7768;BME280;3928;42.626;23.382;2024-03-23T08:10:46;94435.38;;;15.05;32.98
7768;BME280;3928;42.626;23.382;2024-03-23T08:13:12;94433.41;;;15.23;31.36
7768;BME280;3928;42.626;23.382;2024-03-23T08:15:37;94445.31;;;15.45;32.22
7768;BME280;3928;42.626;23.382;2024-03-23T08:18:03;94441.41;;;15.59;32.88
7768;BME280;3928;42.626;23.382;2024-03-23T08:20:29;94445.81;;;15.80;31.02
7768;BME280;3928;42.626;23.382;2024-03-23T08:22:54;94447.16;;;15.98;31.77
7768;BME280;3928;42.626;23.382;2024-03-23T08:25:20;94441.19;;;16.09;32.09
7768;BME280;3928;42.626;23.382;2024-03-23T08:27:45;94435.69;;;16.23;31.62
7768;BME280;3928;42.626;23.382;2024-03-23T08:30:11;94436.66;;;16.43;29.50
7768;BME280;3928;42.626;23.382;2024-03-23T08:32:36;94430.22;;;16.52;28.99
7768;BME280;3928;42.626;23.382;2024-03-23T08:35:02;94433.06;;;16.72;29.76
7768;BME280;3928;42.626;23.382;2024-03-23T08:37:28;94430.88;;;16.74;29.68
7768;BME280;3928;42.626;23.382;2024-03-23T08:39:53;94427.06;;;16.83;29.74
7768;BME280;3928;42.626;23.382;2024-03-23T08:42:19;94426.06;;;17.00;29.93
7768;BME280;3928;42.626;23.382;2024-03-23T08:44:44;94419.41;;;17.02;28.38
7768;BME280;3928;42.626;23.382;2024-03-23T08:47:11;94413.41;;;17.14;27.65
7768;BME280;3928;42.626;23.382;2024-03-23T08:49:37;94399.47;;;17.22;28.00
7768;BME280;3928;42.626;23.382;2024-03-23T08:52:03;94403.34;;;17.28;27.98
7768;BME280;3928;42.626;23.382;2024-03-23T08:54:28;94400.31;;;17.26;28.19
7768;BME280;3928;42.626;23.382;2024-03-23T08:56:56;94398.91;;;17.44;29.43
7768;BME280;3928;42.626;23.382;2024-03-23T08:59:21;94396.47;;;17.64;28.18
7768;BME280;3928;42.626;23.382;2024-03-23T09:01:49;94395.03;;;17.66;27.03
7768;BME280;3928;42.626;23.382;2024-03-23T09:04:14;94399.63;;;17.57;29.06
7768;BME280;3928;42.626;23.382;2024-03-23T09:06:42;94376.81;;;17.70;28.31
7768;BME280;3928;42.626;23.382;2024-03-23T09:09:08;94383.75;;;18.09;26.86
7768;BME280;3928;42.626;23.382;2024-03-23T09:11:33;94373.13;;;18.18;26.42
7768;BME280;3928;42.626;23.382;2024-03-23T09:13:59;94377.53;;;18.49;27.17
7768;BME280;3928;42.626;23.382;2024-03-23T09:16:24;94368.72;;;18.72;26.04
7768;BME280;3928;42.626;23.382;2024-03-23T09:18:50;94374.97;;;19.03;26.55
7768;BME280;3928;42.626;23.382;2024-03-23T09:21:15;94363.03;;;19.24;25.90
7768;BME280;3928;42.626;23.382;2024-03-23T09:23:44;94357.03;;;19.43;25.73
7768;BME280;3928;42.626;23.382;2024-03-23T09:26:09;94361.94;;;19.67;26.52
7768;BME280;3928;42.626;23.382;2024-03-23T09:28:35;94346.56;;;19.89;25.98
7768;BME280;3928;42.626;23.382;2024-03-23T09:31:07;94344.84;;;19.73;24.67
7768;BME280;3928;42.626;23.382;2024-03-23T09:33:36;94351.00;;;19.85;24.88
7768;BME280;3928;42.626;23.382;2024-03-23T09:36:05;94323.63;;;19.82;25.02
7768;BME280;3928;42.626;23.382;2024-03-23T09:38:31;94337.19;;;20.10;24.60
7768;BME280;3928;42.626;23.382;2024-03-23T09:40:57;94332.06;;;20.21;23.91
7768;BME280;3928;42.626;23.382;2024-03-23T09:43:23;94336.50;;;20.40;23.88
7768;BME280;3928;42.626;23.382;2024-03-23T09:45:49;94326.00;;;20.40;23.74
7768;BME280;3928;42.626;23.382;2024-03-23T09:48:15;94330.38;;;20.58;23.52
7768;BME280;3928;42.626;23.382;2024-03-23T09:50:42;94318.34;;;20.87;23.73
7768;BME280;3928;42.626;23.382;2024-03-23T09:53:09;94302.75;;;21.01;23.72
7768;BME280;3928;42.626;23.382;2024-03-23T09:55:35;94302.94;;;21.15;22.85
7768;BME280;3928;42.626;23.382;2024-03-23T09:58:01;94311.75;;;21.34;22.65
7768;BME280;3928;42.626;23.382;2024-03-23T10:00:27;94307.75;;;21.47;21.60
7768;BME280;3928;42.626;23.382;2024-03-23T10:02:55;94301.78;;;21.50;22.87
7768;BME280;3928;42.626;23.382;2024-03-23T10:05:22;94304.06;;;21.55;22.61
7768;BME280;3928;42.626;23.382;2024-03-23T10:07:51;94290.63;;;21.63;23.54
7768;BME280;3928;42.626;23.382;2024-03-23T10:10:17;94290.34;;;21.76;21.63
7768;BME280;3928;42.626;23.382;2024-03-23T10:12:46;94285.41;;;21.71;22.92
7768;BME280;3928;42.626;23.382;2024-03-23T10:15:19;94292.25;;;21.35;22.83
7768;BME280;3928;42.626;23.382;2024-03-23T10:17:45;94296.75;;;21.34;22.28
7768;BME280;3928;42.626;23.382;2024-03-23T10:20:11;94287.66;;;21.69;22.58
7768;BME280;3928;42.626;23.382;2024-03-23T10:22:39;94277.38;;;21.93;21.67
7768;BME280;3928;42.626;23.382;2024-03-23T10:25:10;94272.22;;;22.11;22.22
7768;BME280;3928;42.626;23.382;2024-03-23T10:27:36;94275.34;;;22.27;21.61
7768;BME280;3928;42.626;23.382;2024-03-23T10:30:13;94264.19;;;22.55;21.25
7768;BME280;3928;42.626;23.382;2024-03-23T10:32:40;94263.59;;;22.90;21.74
7768;BME280;3928;42.626;23.382;2024-03-23T10:35:19;94253.88;;;23.22;20.93
7768;BME280;3928;42.626;23.382;2024-03-23T10:37:47;94245.66;;;23.56;20.56
7768;BME280;3928;42.626;23.382;2024-03-23T10:40:15;94252.81;;;23.66;19.67
7768;BME280;3928;42.626;23.382;2024-03-23T10:42:41;94236.97;;;23.66;20.01
7768;BME280;3928;42.626;23.382;2024-03-23T10:45:08;94240.00;;;23.78;18.88
7768;BME280;3928;42.626;23.382;2024-03-23T10:47:35;94235.09;;;23.84;18.84
7768;BME280;3928;42.626;23.382;2024-03-23T10:50:01;94236.19;;;24.11;19.44
7768;BME280;3928;42.626;23.382;2024-03-23T10:52:26;94223.75;;;24.08;20.34
7768;BME280;3928;42.626;23.382;2024-03-23T10:54:52;94221.06;;;24.36;19.40
7768;BME280;3928;42.626;23.382;2024-03-23T10:57:21;94206.75;;;24.23;18.89
7768;BME280;3928;42.626;23.382;2024-03-23T10:59:48;94200.34;;;24.24;17.16
7768;BME280;3928;42.626;23.382;2024-03-23T11:02:21;94212.41;;;24.08;17.48
7768;BME280;3928;42.626;23.382;2024-03-23T11:04:47;94200.41;;;23.61;18.17
7768;BME280;3928;42.626;23.382;2024-03-23T11:07:36;94193.63;;;23.70;19.52
7768;BME280;3928;42.626;23.382;2024-03-23T11:10:01;94177.03;;;23.84;20.08
7768;BME280;3928;42.626;23.382;2024-03-23T11:12:29;94175.47;;;24.15;19.93
7768;BME280;3928;42.626;23.382;2024-03-23T11:15:12;94158.03;;;24.39;18.86
7768;BME280;3928;42.626;23.382;2024-03-23T11:17:38;94170.78;;;24.58;18.25
7768;BME280;3928;42.626;23.382;2024-03-23T11:20:05;94153.00;;;24.62;17.61
7768;BME280;3928;42.626;23.382;2024-03-23T11:22:44;94158.22;;;24.76;17.82
7768;BME280;3928;42.626;23.382;2024-03-23T11:27:37;94154.44;;;24.80;17.96
7768;BME280;3928;42.626;23.382;2024-03-23T11:30:22;94145.28;;;24.19;17.56
7768;BME280;3928;42.626;23.382;2024-03-23T11:32:50;94141.59;;;23.78;19.76
7768;BME280;3928;42.626;23.382;2024-03-23T11:35:34;94150.53;;;24.23;18.63
7768;BME280;3928;42.626;23.382;2024-03-23T11:38:04;94144.69;;;24.67;18.80
7768;BME280;3928;42.626;23.382;2024-03-23T11:40:30;94126.50;;;24.79;17.83
7768;BME280;3928;42.626;23.382;2024-03-23T11:42:58;94121.81;;;25.05;19.28
7768;BME280;3928;42.626;23.382;2024-03-23T11:45:24;94118.09;;;25.40;18.33
7768;BME280;3928;42.626;23.382;2024-03-23T11:48:02;94100.09;;;25.68;18.08
7768;BME280;3928;42.626;23.382;2024-03-23T11:50:28;94109.19;;;26.01;18.32
7768;BME280;3928;42.626;23.382;2024-03-23T11:55:45;94086.06;;;26.39;16.36
7768;BME280;3928;42.626;23.382;2024-03-23T11:58:11;94090.38;;;26.83;16.90
7768;BME280;3928;42.626;23.382;2024-03-23T12:00:37;94085.81;;;27.11;17.46
7768;BME280;3928;42.626;23.382;2024-03-23T12:03:03;94079.00;;;27.33;15.51
7768;BME280;3928;42.626;23.382;2024-03-23T12:05:29;94077.41;;;27.59;15.86
7768;BME280;3928;42.626;23.382;2024-03-23T12:08:14;94069.75;;;27.84;16.44
7768;BME280;3928;42.626;23.382;2024-03-23T12:10:40;94065.13;;;28.08;16.46
7768;BME280;3928;42.626;23.382;2024-03-23T12:13:05;94050.47;;;28.19;15.34
7768;BME280;3928;42.626;23.382;2024-03-23T12:15:31;94049.09;;;28.31;15.27
7768;BME280;3928;42.626;23.382;2024-03-23T12:18:09;94061.75;;;28.43;13.66
7768;BME280;3928;42.626;23.382;2024-03-23T12:20:36;94057.00;;;28.51;14.70
7768;BME280;3928;42.626;23.382;2024-03-23T12:23:21;94041.16;;;28.63;14.92
7768;BME280;3928;42.626;23.382;2024-03-23T12:25:48;94045.75;;;28.79;15.70
7768;BME280;3928;42.626;23.382;2024-03-23T12:28:14;94045.94;;;28.72;14.80
7768;BME280;3928;42.626;23.382;2024-03-23T12:30:40;94037.44;;;28.25;14.34
7768;BME280;3928;42.626;23.382;2024-03-23T12:33:06;94044.06;;;28.53;13.92
7768;BME280;3928;42.626;23.382;2024-03-23T12:35:31;94038.31;;;28.74;14.57
7768;BME280;3928;42.626;23.382;2024-03-23T12:37:57;94027.66;;;28.90;14.59
7768;BME280;3928;42.626;23.382;2024-03-23T12:40:23;94023.72;;;29.11;14.02
7768;BME280;3928;42.626;23.382;2024-03-23T12:42:48;94023.69;;;29.27;14.12
7768;BME280;3928;42.626;23.382;2024-03-23T12:45:14;94009.66;;;28.45;12.96
7768;BME280;3928;42.626;23.382;2024-03-23T12:47:40;94016.72;;;27.37;14.51
7768;BME280;3928;42.626;23.382;2024-03-23T12:50:05;94017.31;;;27.68;15.13
7768;BME280;3928;42.626;23.382;2024-03-23T12:52:32;94004.16;;;28.00;14.77
7768;BME280;3928;42.626;23.382;2024-03-23T12:54:58;94005.66;;;28.37;14.59
7768;BME280;3928;42.626;23.382;2024-03-23T12:57:24;93988.81;;;28.60;13.78
7768;BME280;3928;42.626;23.382;2024-03-23T12:59:53;93986.16;;;28.93;13.82
7768;BME280;3928;42.626;23.382;2024-03-23T13:02:20;93986.81;;;28.48;14.20
7768;BME280;3928;42.626;23.382;2024-03-23T13:04:56;93983.97;;;28.23;13.20
7768;BME280;3928;42.626;23.382;2024-03-23T13:07:22;93977.69;;;28.49;13.10
7768;BME280;3928;42.626;23.382;2024-03-23T13:09:52;93972.03;;;28.79;13.30
7768;BME280;3928;42.626;23.382;2024-03-23T13:12:19;93974.69;;;28.96;13.17
7768;BME280;3928;42.626;23.382;2024-03-23T13:14:45;93964.47;;;28.94;13.87
7768;BME280;3928;42.626;23.382;2024-03-23T13:17:11;93964.03;;;28.96;13.69
7768;BME280;3928;42.626;23.382;2024-03-23T13:19:37;93964.44;;;29.10;13.95
7768;BME280;3928;42.626;23.382;2024-03-23T13:22:03;93961.38;;;28.96;13.41
7768;BME280;3928;42.626;23.382;2024-03-23T13:24:29;93947.03;;;28.77;12.92
7768;BME280;3928;42.626;23.382;2024-03-23T13:26:56;93942.47;;;28.77;12.78
7768;BME280;3928;42.626;23.382;2024-03-23T13:29:22;93944.16;;;29.00;12.88
7768;BME280;3928;42.626;23.382;2024-03-23T13:31:48;93922.41;;;28.89;12.84
7768;BME280;3928;42.626;23.382;2024-03-23T13:34:14;93935.78;;;29.30;12.65
7768;BME280;3928;42.626;23.382;2024-03-23T13:36:44;93944.19;;;29.70;12.78
7768;BME280;3928;42.626;23.382;2024-03-23T13:39:10;93941.16;;;30.10;12.29
7768;BME280;3928;42.626;23.382;2024-03-23T13:41:45;93929.88;;;30.44;11.82
7768;BME280;3928;42.626;23.382;2024-03-23T13:44:12;93936.75;;;30.41;11.99
7768;BME280;3928;42.626;23.382;2024-03-23T13:46:39;93928.25;;;30.08;11.40
7768;BME280;3928;42.626;23.382;2024-03-23T13:49:05;93933.84;;;29.60;11.45
7768;BME280;3928;42.626;23.382;2024-03-23T13:51:31;93906.34;;;29.50;11.46
7768;BME280;3928;42.626;23.382;2024-03-23T13:53:57;93930.19;;;29.54;10.66
7768;BME280;3928;42.626;23.382;2024-03-23T13:56:25;93917.41;;;29.36;9.74
7768;BME280;3928;42.626;23.382;2024-03-23T13:58:51;93921.50;;;28.47;10.79
7768;BME280;3928;42.626;23.382;2024-03-23T14:01:17;93911.75;;;28.08;11.58
7768;BME280;3928;42.626;23.382;2024-03-23T14:03:43;93903.72;;;28.60;11.29
7768;BME280;3928;42.626;23.382;2024-03-23T14:06:10;93908.50;;;28.98;11.31
7768;BME280;3928;42.626;23.382;2024-03-23T14:08:37;93911.63;;;29.09;11.16
7768;BME280;3928;42.626;23.382;2024-03-23T14:11:08;93903.78;;;29.18;10.85
7768;BME280;3928;42.626;23.382;2024-03-23T14:13:37;93892.44;;;29.30;10.92